createdAt,value
2018-02-06T00:01:01.591Z,54.30
2018-02-06T00:03:29.086Z,54.30
2018-02-06T00:05:56.602Z,54.60
2018-02-06T00:08:24.834Z,54.70
2018-02-06T00:10:52.318Z,54.60
2018-02-06T00:13:19.848Z,54.70
2018-02-06T00:15:47.318Z,55.00
2018-02-06T00:18:14.798Z,54.70
2018-02-06T00:20:42.296Z,54.90
2018-02-06T00:23:10.575Z,54.80
2018-02-06T00:25:38.033Z,54.70
2018-02-06T00:28:05.546Z,54.70
2018-02-06T00:30:33.034Z,54.80
2018-02-06T00:33:01.378Z,54.70
2018-02-06T00:35:28.877Z,54.70
2018-02-06T00:37:56.398Z,54.70
2018-02-06T00:40:23.906Z,54.70
2018-02-06T00:42:51.418Z,54.40
2018-02-06T00:45:18.990Z,54.80
2018-02-06T00:47:47.229Z,55.00
2018-02-06T00:50:14.697Z,55.00
2018-02-06T00:52:42.188Z,55.00
2018-02-06T00:55:09.670Z,54.80
2018-02-06T00:57:37.158Z,54.70
2018-02-06T01:00:04.726Z,54.90
2018-02-06T01:02:32.969Z,66.40
2018-02-06T01:05:00.477Z,66.40
2018-02-06T01:07:28.711Z,62.10
2018-02-06T01:09:56.236Z,62.10
2018-02-06T01:12:23.712Z,60.40
2018-02-06T01:14:52.003Z,59.40
2018-02-06T01:17:20.235Z,59.10
2018-02-06T01:19:47.730Z,59.10
2018-02-06T01:22:15.217Z,58.80
2018-02-06T01:24:42.722Z,58.60
2018-02-06T01:27:10.208Z,58.60
2018-02-06T01:29:37.698Z,58.60
2018-02-06T01:32:05.202Z,58.60
2018-02-06T01:34:32.709Z,58.40
2018-02-06T01:37:00.175Z,58.40
2018-02-06T01:39:27.657Z,58.20
2018-02-06T01:41:55.134Z,58.20
2018-02-06T01:44:22.609Z,58.10
2018-02-06T01:46:50.108Z,58.10
2018-02-06T01:49:17.624Z,58.00
2018-02-06T01:51:45.101Z,58.00
2018-02-06T01:54:12.604Z,57.90
2018-02-06T01:56:40.110Z,57.90
2018-02-06T01:59:08.363Z,57.90
2018-02-06T02:01:35.843Z,57.90
2018-02-06T02:04:03.350Z,57.90
2018-02-06T02:06:31.584Z,57.80
2018-02-06T02:08:59.126Z,57.80
2018-02-06T02:11:26.607Z,57.80
2018-02-06T02:13:54.153Z,57.80
2018-02-06T02:16:21.690Z,57.90
2018-02-06T02:18:49.167Z,57.80
2018-02-06T02:21:16.649Z,57.80
2018-02-06T02:23:44.899Z,57.90
2018-02-06T02:26:12.418Z,57.90
2018-02-06T02:28:40.660Z,57.80
2018-02-06T02:31:08.174Z,57.80
2018-02-06T02:33:36.414Z,57.80
2018-02-06T02:36:03.921Z,57.80
2018-02-06T02:38:31.385Z,57.80
2018-02-06T02:40:58.891Z,57.80
2018-02-06T04:39:06.294Z,58.40
2018-02-06T04:41:33.779Z,58.50
2018-02-06T04:44:01.298Z,58.60
2018-02-06T04:46:28.822Z,58.50
2018-02-06T04:48:56.314Z,58.50
2018-02-06T04:51:23.812Z,58.40
2018-02-06T04:53:51.310Z,58.50
2018-02-06T04:56:18.802Z,58.60
2018-02-06T04:58:46.286Z,58.50
2018-02-06T05:01:13.751Z,58.40
2018-02-06T05:03:41.263Z,58.40
2018-02-06T05:06:08.732Z,58.50
2018-02-06T05:08:36.295Z,58.40
2018-02-06T05:11:04.541Z,58.60
2018-02-06T05:13:32.004Z,58.60
2018-02-06T05:15:59.482Z,58.60
2018-02-06T05:18:26.987Z,58.40
2018-02-06T05:20:55.254Z,58.50
2018-02-06T05:23:22.762Z,58.40
2018-02-06T05:25:50.248Z,58.60
2018-02-06T05:28:17.735Z,58.50
2018-02-06T05:30:45.244Z,58.40
2018-02-06T05:33:13.514Z,58.40
2018-02-06T05:35:40.973Z,58.40
2018-02-06T05:38:08.446Z,58.40
2018-02-06T05:40:35.920Z,58.30
2018-02-06T05:43:03.430Z,58.30
2018-02-06T05:45:31.701Z,58.40
2018-02-06T05:47:59.942Z,58.40
2018-02-06T05:50:27.462Z,58.40
2018-02-06T05:52:55.710Z,58.50
2018-02-06T05:55:23.222Z,58.50
2018-02-06T05:57:51.453Z,58.50
2018-02-06T06:00:18.950Z,58.40
2018-02-06T06:02:46.436Z,58.50
2018-02-06T06:05:13.931Z,58.40
2018-02-06T06:07:42.190Z,58.50
2018-02-06T06:10:09.688Z,58.40
2018-02-06T06:12:38.021Z,58.40
2018-02-06T06:15:05.490Z,58.40
2018-02-06T06:17:32.982Z,58.30
2018-02-06T06:20:00.462Z,58.30
2018-02-06T06:22:27.970Z,58.30
2018-02-06T06:24:55.483Z,58.70
2018-02-06T06:27:22.966Z,58.20
2018-02-06T06:29:50.446Z,58.30
2018-02-06T06:32:17.933Z,58.20
2018-02-06T06:34:46.212Z,58.30
2018-02-06T06:37:14.483Z,58.20
2018-02-06T06:39:42.003Z,58.20
2018-02-06T06:42:09.535Z,58.20
2018-02-06T06:44:37.033Z,58.10
2018-02-06T06:47:04.561Z,57.90
2018-02-06T06:49:32.025Z,58.00
2018-02-06T06:51:59.516Z,58.10
2018-02-06T06:54:26.983Z,58.00
2018-02-06T06:56:54.487Z,58.00
2018-02-06T06:59:21.998Z,58.00
2018-02-06T07:01:49.479Z,57.80
2018-02-06T07:04:16.971Z,57.90
2018-02-06T07:06:44.464Z,58.00
2018-02-06T07:09:12.698Z,58.00
2018-02-06T07:11:40.954Z,57.90
2018-02-06T07:14:08.463Z,57.90
2018-02-06T07:16:35.925Z,57.80
2018-02-06T07:19:03.460Z,58.30
2018-02-06T07:21:30.958Z,57.70
2018-02-06T07:23:58.443Z,57.70
2018-02-06T07:26:25.958Z,57.70
2018-02-06T07:28:54.257Z,57.50
2018-02-06T07:31:21.715Z,57.50
2018-02-06T07:33:49.954Z,57.60
2018-02-06T07:36:17.440Z,57.60
2018-02-06T07:38:44.914Z,57.50
2018-02-06T07:41:12.383Z,57.50
2018-02-06T07:43:39.903Z,57.50
2018-02-06T07:46:07.397Z,57.50
2018-02-06T07:48:34.934Z,57.50
2018-02-06T07:51:03.178Z,57.40
2018-02-06T07:53:30.679Z,57.40
2018-02-06T07:55:58.962Z,57.20
2018-02-06T07:58:26.463Z,57.20
2018-02-06T08:00:53.956Z,57.20
2018-02-06T08:03:21.458Z,57.30
2018-02-06T08:05:48.938Z,57.20
2018-02-06T08:08:16.400Z,57.20
2018-02-06T08:10:43.898Z,57.20
2018-02-06T08:13:12.139Z,57.00
2018-02-06T08:15:39.633Z,57.00
2018-02-06T08:18:07.124Z,57.10
2018-02-06T08:20:35.394Z,57.30
2018-02-06T08:23:02.874Z,56.60
2018-02-06T08:25:30.373Z,56.70
2018-02-06T08:27:57.865Z,56.90
2018-02-06T08:30:25.375Z,56.80
2018-02-06T08:32:53.639Z,57.00
2018-02-06T08:35:21.922Z,56.80
2018-02-06T08:37:49.378Z,56.70
2018-02-06T08:40:16.850Z,56.70
2018-02-06T08:42:44.345Z,56.70
2018-02-06T08:45:11.823Z,56.60
2018-02-06T08:47:39.312Z,56.60
2018-02-06T08:50:07.598Z,56.50
2018-02-06T08:52:35.915Z,56.50
2018-02-06T08:55:03.398Z,56.40
2018-02-06T08:57:30.899Z,55.30
2018-02-06T08:59:58.394Z,55.10
2018-02-06T09:02:25.858Z,54.90
2018-02-06T09:04:53.384Z,54.80
2018-02-06T09:07:20.880Z,54.60
2018-02-06T09:09:48.374Z,54.40
2018-02-06T09:12:16.634Z,54.00
2018-02-06T09:14:44.111Z,54.00
2018-02-06T09:17:11.610Z,53.70
2018-02-06T09:19:39.082Z,53.50
2018-02-06T09:22:07.327Z,52.80
2018-02-06T09:24:34.822Z,52.80
2018-02-06T09:27:02.295Z,52.50
2018-02-06T09:29:29.778Z,52.40
2018-02-06T09:31:58.054Z,51.80
2018-02-06T09:34:25.563Z,51.80
2018-02-06T09:36:53.067Z,51.50
2018-02-06T09:39:20.597Z,51.20
2018-02-06T09:41:48.090Z,50.90
2018-02-06T09:44:15.574Z,50.40
2018-02-06T09:46:43.117Z,50.20
2018-02-06T09:49:11.374Z,49.80
2018-02-06T09:51:38.886Z,49.80
2018-02-06T09:54:06.382Z,49.40
2018-02-06T09:56:33.866Z,49.20
2018-02-06T09:59:01.350Z,49.00
2018-02-06T10:01:28.830Z,48.70
2018-02-06T10:03:56.311Z,48.70
2018-02-06T10:06:24.578Z,48.30
2018-02-06T10:08:52.049Z,48.20
2018-02-06T10:11:19.547Z,48.00
2018-02-06T10:13:47.798Z,47.80
2018-02-06T10:16:15.371Z,47.80
2018-02-06T10:18:43.641Z,47.70
2018-02-06T10:21:11.130Z,47.70
2018-02-06T10:23:38.735Z,47.60
2018-02-06T10:26:06.233Z,47.30
2018-02-06T10:28:33.715Z,47.20
2018-02-06T10:31:01.208Z,47.10
2018-02-06T10:33:28.694Z,46.90
2018-02-06T10:35:56.171Z,46.90
2018-02-06T10:38:23.638Z,47.00
2018-02-06T10:40:51.129Z,46.90
2018-02-06T10:43:19.390Z,46.50
2018-02-06T10:45:46.864Z,46.40
2018-02-06T10:48:15.151Z,46.10
2018-02-06T10:50:42.630Z,46.10
2018-02-06T10:53:10.121Z,45.90
2018-02-06T10:55:37.594Z,45.80
2018-02-06T10:58:05.091Z,45.50
2018-02-06T11:00:32.572Z,45.20
2018-02-06T11:03:00.135Z,45.20
2018-02-06T11:05:27.619Z,44.90
2018-02-06T11:07:55.079Z,44.70
2018-02-06T11:10:23.326Z,44.10
2018-02-06T11:12:51.561Z,43.70
2018-02-06T11:15:19.038Z,43.70
2018-02-06T11:17:46.530Z,44.20
2018-02-06T11:20:14.014Z,44.70
2018-02-06T11:22:42.262Z,44.70
2018-02-06T11:25:09.825Z,44.70
2018-02-06T11:27:37.290Z,44.20
2018-02-06T11:30:04.779Z,44.50
2018-02-06T11:32:32.250Z,42.50
2018-02-06T11:34:59.753Z,40.80
2018-02-06T11:37:27.254Z,40.00
2018-02-06T11:39:54.798Z,36.90
2018-02-06T11:42:23.054Z,32.90
2018-02-06T11:44:50.543Z,32.80
2018-02-06T11:47:18.018Z,31.50
2018-02-06T11:49:45.500Z,30.30
2018-02-06T11:52:13.722Z,29.10
2018-02-06T11:54:41.198Z,29.00
2018-02-06T11:57:08.702Z,28.30
2018-02-06T11:59:36.173Z,27.70
2018-02-06T12:02:03.650Z,27.40
2018-02-06T12:04:31.126Z,26.90
2018-02-06T12:06:59.462Z,26.50
2018-02-06T12:09:27.706Z,26.20
2018-02-06T12:11:55.205Z,26.10
2018-02-06T12:14:22.689Z,26.30
2018-02-06T12:16:50.163Z,25.90
2018-02-06T12:19:17.626Z,25.70
2018-02-06T12:21:45.122Z,25.70
2018-02-06T12:24:12.606Z,25.80
2018-02-06T12:26:40.089Z,25.40
2018-02-06T12:29:07.574Z,25.00
2018-02-06T12:31:35.814Z,24.90
2018-02-06T12:34:03.277Z,24.90
2018-02-06T12:36:30.746Z,24.50
2018-02-06T12:38:58.220Z,24.30
2018-02-06T12:41:25.715Z,24.00
2018-02-06T12:43:53.178Z,24.40
2018-02-06T12:46:20.686Z,24.40
2018-02-06T12:48:49.005Z,25.40
2018-02-06T12:51:17.213Z,25.70
2018-02-06T12:53:44.698Z,25.70
2018-02-06T12:56:12.173Z,25.80
2018-02-06T12:58:39.664Z,24.70
2018-02-06T13:01:07.165Z,24.40
2018-02-06T13:03:34.677Z,23.80
2018-02-06T13:06:02.157Z,22.90
2018-02-06T13:08:29.638Z,22.60
2018-02-06T13:10:57.173Z,22.00
2018-02-06T13:13:24.658Z,21.10
2018-02-06T13:15:52.122Z,21.20
2018-02-06T13:18:19.609Z,20.50
2018-02-06T13:20:47.075Z,20.10
2018-02-06T13:23:14.603Z,20.10
2018-02-06T13:25:42.842Z,19.90
2018-02-06T13:28:10.339Z,19.80
2018-02-06T13:30:38.585Z,19.90
2018-02-06T13:33:06.062Z,19.90
2018-02-06T13:35:33.588Z,19.70
2018-02-06T13:38:01.117Z,19.60
2018-02-06T13:40:28.623Z,19.50
2018-02-06T13:42:56.122Z,19.40
2018-02-06T13:45:23.620Z,19.50
2018-02-06T13:47:51.101Z,19.50
2018-02-06T13:50:18.574Z,19.50
2018-02-06T13:52:46.081Z,19.50
2018-02-06T13:55:13.554Z,19.60
2018-02-06T13:57:54.990Z,19.40
2018-02-06T14:00:22.474Z,19.40
2018-02-06T14:02:49.953Z,19.50
2018-02-06T14:05:17.434Z,19.50
2018-02-06T14:07:45.667Z,19.60
2018-02-06T14:10:13.159Z,19.60
2018-02-06T14:12:40.630Z,19.80
2018-02-06T14:15:08.122Z,20.00
2018-02-06T14:17:35.603Z,20.30
2018-02-06T14:20:03.850Z,21.00
2018-02-06T14:22:32.118Z,22.30
2018-02-06T14:24:59.617Z,22.30
2018-02-06T14:27:27.153Z,24.20
2018-02-06T14:29:54.638Z,25.90
2018-02-06T14:32:22.138Z,27.80
2018-02-06T14:34:49.630Z,29.20
2018-02-06T14:37:32.796Z,32.70
2018-02-06T14:40:00.280Z,32.60
2018-02-06T14:42:27.757Z,34.40
2018-02-06T14:44:55.255Z,35.30
2018-02-06T14:47:22.776Z,35.20
2018-02-06T14:49:50.241Z,35.40
2018-02-06T14:52:17.738Z,35.50
2018-02-06T14:54:45.205Z,33.50
2018-02-06T14:57:12.682Z,33.70
2018-02-06T14:59:40.165Z,34.90
2018-02-06T15:02:07.654Z,35.40
2018-02-06T15:04:35.135Z,35.60
2018-02-06T15:07:02.639Z,36.40
2018-02-06T15:09:30.109Z,37.60
2018-02-06T15:11:57.599Z,38.60
2018-02-06T15:14:25.086Z,39.40
2018-02-06T15:16:52.581Z,40.00
2018-02-06T15:19:20.070Z,40.60
2018-02-06T15:21:48.318Z,41.90
2018-02-06T15:24:15.790Z,41.90
2018-02-06T15:26:43.267Z,42.60
2018-02-06T15:29:10.782Z,43.00
2018-02-06T15:31:38.306Z,43.30
2018-02-06T15:34:05.782Z,43.40
2018-02-06T15:36:33.275Z,43.70
2018-02-06T15:39:01.559Z,43.90
2018-02-06T15:41:29.830Z,44.00
2018-02-06T15:43:58.077Z,44.00
2018-02-06T15:46:25.562Z,44.00
2018-02-06T15:48:53.051Z,44.20
2018-02-06T15:51:20.667Z,44.70
2018-02-06T15:53:48.955Z,45.00
2018-02-06T15:56:17.206Z,45.00
2018-02-06T15:58:44.687Z,45.00
2018-02-06T16:01:12.585Z,45.20
2018-02-06T16:03:40.880Z,45.50
2018-02-06T16:06:09.154Z,45.50
2018-02-06T16:08:37.418Z,45.90
2018-02-06T16:11:04.923Z,45.80
2018-02-06T16:13:33.195Z,46.00
2018-02-06T16:16:00.673Z,46.00
2018-02-06T16:18:28.906Z,46.20
2018-02-06T16:20:56.399Z,46.20
2018-02-06T16:23:23.914Z,46.50
2018-02-06T16:25:52.161Z,46.70
2018-02-06T16:28:19.722Z,46.70
2018-02-06T16:30:47.264Z,46.80
2018-02-06T16:33:14.727Z,47.00
2018-02-06T16:35:42.235Z,47.00
2018-02-06T16:38:09.760Z,47.10
2018-02-06T16:40:38.043Z,47.30
2018-02-06T16:43:06.282Z,47.20
2018-02-06T16:45:33.815Z,47.20
2018-02-06T16:48:01.301Z,47.30
2018-02-06T16:50:28.812Z,47.30
2018-02-06T16:52:56.298Z,47.40
2018-02-06T16:55:23.782Z,47.50
2018-02-06T16:57:51.268Z,47.40
2018-02-06T17:00:18.764Z,47.40
2018-02-06T17:02:46.259Z,47.40
2018-02-06T17:05:13.778Z,47.50
2018-02-06T17:07:41.298Z,47.60
2018-02-06T17:10:08.807Z,47.50
2018-02-06T17:12:37.074Z,47.50
2018-02-06T17:15:04.554Z,47.50
2018-02-06T17:17:32.057Z,47.50
2018-02-06T17:19:59.569Z,47.50
2018-02-06T17:22:27.047Z,47.60
2018-02-06T17:24:54.525Z,47.60
2018-02-06T17:27:22.083Z,47.60
2018-02-06T17:29:49.582Z,47.60
2018-02-06T17:32:17.095Z,47.70
2018-02-06T17:34:44.615Z,47.70
2018-02-06T17:37:12.126Z,47.60
2018-02-06T17:39:39.646Z,47.70
2018-02-06T17:42:07.147Z,47.70
2018-02-06T17:44:35.414Z,47.80
2018-02-06T17:47:02.906Z,47.80
2018-02-06T17:49:31.459Z,47.80
2018-02-06T17:51:59.050Z,47.80
2018-02-06T17:54:27.324Z,38.80
2018-02-06T17:56:54.967Z,38.40
2018-02-06T17:59:23.221Z,41.60
2018-02-06T18:01:51.478Z,42.60
2018-02-06T18:04:19.003Z,42.70
2018-02-06T18:06:46.558Z,42.50
2018-02-06T18:09:14.826Z,40.40
2018-02-06T18:11:42.312Z,40.30
2018-02-06T18:14:10.614Z,40.40
2018-02-06T18:16:38.112Z,40.40
2018-02-06T18:19:05.666Z,39.70
2018-02-06T18:21:33.139Z,39.30
2018-02-06T18:24:00.638Z,39.80
2018-02-06T18:26:28.179Z,40.10
2018-02-06T18:28:55.707Z,40.20
2018-02-06T18:31:23.324Z,40.30
2018-02-06T18:33:51.072Z,39.90
2018-02-06T18:36:18.584Z,40.20
2018-02-06T18:38:46.194Z,39.90
2018-02-06T18:41:13.714Z,40.20
2018-02-06T18:43:41.214Z,45.00
2018-02-06T18:46:08.714Z,43.00
2018-02-06T18:48:36.224Z,42.40
2018-02-06T18:51:03.713Z,43.50
2018-02-06T18:56:02.939Z,54.70
2018-02-06T19:01:02.148Z,41.80
2018-02-06T19:03:30.415Z,49.70
2018-02-06T19:05:57.903Z,49.60
2018-02-06T19:08:26.235Z,37.60
2018-02-06T19:10:53.803Z,37.60
2018-02-06T19:13:22.614Z,38.20
2018-02-06T19:15:51.053Z,46.30
2018-02-06T19:18:19.994Z,37.60
2018-02-06T19:20:51.226Z,37.60
2018-02-06T19:23:20.459Z,37.90
2018-02-06T19:25:50.761Z,37.80
2018-02-06T19:28:24.989Z,37.40
2018-02-06T19:30:52.477Z,35.20
2018-02-06T19:33:20.013Z,34.20
2018-02-06T19:35:48.260Z,32.50
2018-02-06T19:38:15.714Z,32.50
2018-02-06T19:40:43.181Z,32.90
2018-02-06T19:43:10.621Z,33.30
2018-02-06T19:45:38.093Z,32.70
2018-02-06T19:48:05.556Z,32.60
2018-02-06T19:50:33.038Z,32.50
2018-02-06T19:53:00.497Z,33.10
2018-02-06T19:55:28.749Z,30.60
2018-02-06T19:57:56.221Z,30.60
2018-02-06T20:00:23.685Z,33.60
2018-02-06T20:02:51.125Z,35.20
2018-02-06T20:05:20.292Z,37.10
2018-02-06T20:07:47.894Z,37.10
2018-02-06T20:10:15.353Z,37.40
2018-02-06T20:12:42.811Z,38.60
2018-02-06T20:15:11.042Z,38.70
2018-02-06T20:17:38.508Z,38.70
2018-02-06T20:20:05.957Z,39.30
2018-02-06T20:22:33.425Z,39.00
2018-02-06T20:25:00.885Z,39.40
2018-02-06T20:27:36.526Z,40.10
2018-02-06T20:30:07.814Z,40.10
2018-02-06T20:32:35.282Z,40.20
2018-02-06T20:35:02.729Z,40.40
2018-02-06T20:37:30.967Z,41.40
2018-02-06T20:39:58.408Z,41.40
2018-02-06T20:42:25.864Z,41.80
2018-02-06T20:44:54.098Z,41.90
2018-02-06T20:47:22.312Z,42.00
2018-02-06T20:49:49.773Z,41.90
2018-02-06T20:52:17.233Z,42.00
2018-02-06T20:54:44.686Z,42.10
2018-02-06T20:57:12.145Z,42.40
2018-02-06T20:59:39.593Z,42.20
2018-02-06T21:02:07.073Z,41.90
2018-02-06T21:04:34.526Z,42.00
2018-02-06T21:07:01.977Z,42.40
2018-02-06T21:09:30.198Z,42.10
2018-02-06T21:11:57.669Z,42.10
2018-02-06T21:14:25.890Z,41.90
2018-02-06T21:16:54.468Z,41.90
2018-02-06T21:19:21.916Z,42.10
2018-02-06T21:21:49.372Z,42.50
2018-02-06T21:24:16.834Z,42.40
2018-02-06T21:26:44.293Z,41.10
2018-02-06T21:29:11.749Z,41.40
2018-02-06T21:31:39.206Z,41.10
2018-02-06T21:34:06.665Z,41.40
2018-02-06T21:36:34.121Z,42.70
2018-02-06T21:39:01.581Z,43.00
2018-02-06T21:41:29.041Z,43.20
2018-02-06T21:43:56.499Z,43.80
2018-02-06T21:46:23.956Z,44.30
2018-02-06T21:48:51.425Z,44.20
2018-02-06T21:51:18.873Z,45.20
2018-02-06T21:53:46.326Z,45.50
2018-02-06T21:56:13.781Z,45.40
2018-02-06T21:58:41.237Z,45.40
2018-02-06T22:01:08.681Z,45.30
2018-02-06T22:03:36.149Z,45.30
2018-02-06T22:06:03.610Z,45.90
2018-02-06T22:08:31.067Z,45.80
2018-02-06T22:10:59.290Z,60.30
2018-02-06T22:13:26.752Z,60.40
2018-02-06T22:15:54.209Z,58.10
2018-02-06T22:18:21.668Z,55.10
2018-02-06T22:20:49.124Z,52.90
2018-02-06T22:23:16.570Z,51.50
2018-02-06T22:25:44.032Z,50.60
2018-02-06T22:28:11.482Z,50.00
2018-02-06T22:30:38.955Z,49.40
2018-02-06T22:33:06.409Z,49.30
2018-02-06T22:35:33.870Z,49.00
2018-02-06T22:38:02.092Z,48.50
2018-02-06T22:40:29.550Z,48.50
2018-02-06T22:42:57.003Z,48.50
2018-02-06T22:45:24.518Z,48.50
2018-02-06T22:47:52.737Z,48.90
2018-02-06T22:50:20.205Z,48.50
2018-02-06T22:52:47.654Z,48.40
2018-02-06T22:55:15.110Z,48.40
2018-02-06T22:57:42.567Z,48.50
2018-02-06T23:00:10.038Z,48.50
2018-02-06T23:02:37.486Z,48.40
2018-02-06T23:05:04.944Z,48.60
2018-02-06T23:07:32.393Z,48.60
2018-02-06T23:09:59.843Z,48.60
2018-02-06T23:12:27.302Z,48.60
2018-02-06T23:14:54.766Z,48.70
2018-02-06T23:17:22.213Z,48.80
2018-02-06T23:19:49.669Z,48.90
2018-02-06T23:22:17.156Z,48.90
2018-02-06T23:24:44.605Z,49.00
2018-02-06T23:27:12.173Z,49.60
2018-02-06T23:29:39.617Z,49.10
2018-02-06T23:32:07.072Z,49.20
2018-02-06T23:34:34.563Z,49.30
2018-02-06T23:37:01.985Z,49.80
2018-02-06T23:39:29.438Z,49.40
2018-02-06T23:41:56.897Z,49.40
2018-02-06T23:44:24.354Z,49.50
2018-02-06T23:46:51.817Z,49.40
2018-02-06T23:49:19.258Z,49.40
2018-02-06T23:51:46.705Z,49.40
2018-02-06T23:54:14.917Z,49.70
2018-02-06T23:56:42.405Z,49.60
2018-02-06T23:59:09.877Z,49.70
